Flight Track Log - Related Links

Times and Time Zones

All times are in EDT time to prevent confusion due to time zone crossing. See the ASQ4976 flight status page for this flight to view local times or setup timezone preferences in your user account.

Time Position Orientation Groundspeed Altitude Reporting Facility
EDT Latitude Longitude Course Direction KTS MPH feet Rate Location/Type
Sat 09:54:45 AM 33.6500 -84.4500 292° West 167 192 1,900  Level Atlanta TRACON
Sat 09:55:39 AM 33.6667 -84.5000 292° West 214 246 3,300 2,105 Climbing Atlanta TRACON
Sat 09:56:39 AM 33.7000 -84.5833 296° West 270 311 5,900 2,650 Climbing Atlanta TRACON
Sat 09:57:39 AM 33.7833 -84.5833 360° North 284 327 8,600 2,026 Climbing Atlanta TRACON
Sat 09:59:10 AM 33.8872 -84.5167 28° Northeast 306 352 11,000 1,907 Climbing Atlanta Center
Sat 10:00:10 AM 33.9961 -84.4572 24° Northeast 351 404 13,400 2,150 Climbing Atlanta Center
Sat 10:01:10 AM 34.0756 -84.4075 27° Northeast 367 422 15,300 2,200 Climbing Atlanta Center
Sat 10:02:10 AM 34.1864 -84.3425 26° Northeast 382 440 17,800 2,200 Climbing Atlanta Center
Sat 10:03:10 AM 34.2867 -84.2878 24° Northeast 390 449 19,700 1,500 Climbing Atlanta Center
Sat 10:04:10 AM 34.3972 -84.2578 13° North 390 449 20,800 1,050 Climbing Atlanta Center
Sat 10:05:10 AM 34.5017 -84.2328 11° North 408 470 21,800 1,300 Climbing Atlanta Center
Sat 10:06:10 AM 34.6206 -84.2053 11° North 431 496 23,400 1,700 Climbing Atlanta Center
Sat 10:07:10 AM 34.7500 -84.1753 11° North 430 495 25,200 1,550 Climbing Atlanta Center
Sat 10:08:10 AM 34.8711 -84.1450 12° North 430 495 26,500 1,150 Climbing Atlanta Center
Sat 10:09:10 AM 34.9942 -84.1175 10° North 435 501 27,500 1,000 Climbing Atlanta Center
Sat 10:10:10 AM 35.1258 -84.0844 12° North 453 521 28,500 950 Climbing Atlanta Center
Sat 10:11:10 AM 35.2531 -84.0539 11° North 463 533 29,400 750 Climbing Atlanta Center
Sat 10:12:10 AM 35.3844 -84.0233 11° North 469 540 30,000 350 Climbing Atlanta Center
Sat 10:13:10 AM 35.5181 -83.9903 11° North 480 552 30,100 50 Climbing Atlanta Center
Sat 10:14:10 AM 35.6536 -83.9544 12° North 487 560 30,100 -50 Level Atlanta Center
Sat 10:15:10 AM 35.7869 -83.9236 11° North 487 560 30,000 450 Descending Atlanta Center
Sat 10:16:10 AM 35.9225 -83.8850 13° North 482 555 31,000 1,100 Climbing Atlanta Center
Sat 10:17:10 AM 36.0478 -83.8075 27° Northeast 488 562 32,200 1,150 Climbing Atlanta Center
Sat 10:18:10 AM 36.1706 -83.7275 28° Northeast 493 567 33,300 1,031 Climbing Atlanta Center
Sat 10:20:22 AM 36.4444 -83.5522 27° Northeast 501 577 35,500 933 Climbing Indianapolis Center
Sat 10:21:23 AM 36.5672 -83.4756 27° Northeast 507 583 36,300 732 Climbing Indianapolis Center
Sat 10:22:25 AM 36.6867 -83.3833 32° Northeast 506 582 37,000 339 Climbing Indianapolis Center
Sat 10:23:27 AM 36.8019 -83.2744 37° Northeast 515 593 37,000  Level Indianapolis Center
Sat 10:24:29 AM 36.9175 -83.1661 37° Northeast 513 590 37,000  Level Indianapolis Center
Sat 10:25:30 AM 37.0347 -83.0569 37° Northeast 514 592 37,000  Level Indianapolis Center
Sat 10:26:32 AM 37.1494 -82.9442 38° Northeast 512 589 37,000  Level Indianapolis Center
Sat 10:27:34 AM 37.2819 -82.8169 37° Northeast 508 585 37,000  Level Indianapolis Center
Sat 10:28:36 AM 37.3953 -82.7083 37° Northeast 509 586 37,000  Level Indianapolis Center
Sat 10:29:37 AM 37.5064 -82.6019 37° Northeast 500 575 37,000  Level Indianapolis Center
Sat 10:30:39 AM 37.6158 -82.4950 38° Northeast 496 571 37,000  Level Indianapolis Center
Sat 10:31:41 AM 37.7242 -82.3883 38° Northeast 493 567 37,000  Level Indianapolis Center
Sat 10:32:42 AM 37.8336 -82.2825 37° Northeast 491 565 37,000  Level Indianapolis Center
Sat 10:33:44 AM 37.9417 -82.1775 37° Northeast 489 563 37,000  Level Indianapolis Center
Sat 10:34:46 AM 38.0608 -82.0603 38° Northeast 502 578 37,000  Level Indianapolis Center
Sat 10:35:47 AM 38.1708 -81.9508 38° Northeast 503 579 37,000  Level Indianapolis Center
Sat 10:36:49 AM 38.2797 -81.8419 38° Northeast 499 574 37,000  Level Indianapolis Center
Sat 10:37:51 AM 38.3825 -81.7222 42° Northeast 505 581 37,000  Level Indianapolis Center
Sat 10:38:52 AM 38.4781 -81.5872 48° Northeast 517 595 37,000  Level Indianapolis Center
Sat 10:39:54 AM 38.5900 -81.4261 48° Northeast 516 594 37,000  Level Indianapolis Center
Sat 10:40:56 AM 38.6836 -81.2939 48° Northeast 515 593 37,000  Level Indianapolis Center
Sat 10:41:57 AM 38.7778 -81.1578 48° Northeast 515 593 37,000  Level Indianapolis Center
Sat 10:42:59 AM 38.8719 -81.0208 49° Northeast 514 592 37,000  Level Indianapolis Center
Sat 10:44:00 AM 38.9678 -80.8831 48° Northeast 519 597 37,000  Level Indianapolis Center
Sat 10:45:02 AM 39.0814 -80.7206 48° Northeast 512 589 37,000  Level Indianapolis Center
Sat 10:46:04 AM 39.1761 -80.5881 47° Northeast 503 579 37,000  Level Indianapolis Center
Sat 10:47:05 AM 39.2708 -80.4553 47° Northeast 503 579 37,000  Level Indianapolis Center
Sat 10:48:07 AM 39.3658 -80.3236 47° Northeast 500 575 37,000  Level Indianapolis Center
Sat 10:48:46 AM 39.4267 -80.2444 45° Northeast 501 577 37,000 61 Level Cleveland Center
Sat 10:49:46 AM 39.5283 -80.0958 48° Northeast 501 577 37,100  Climbing Cleveland Center
Sat 10:50:46 AM 39.6194 -79.9658 48° Northeast 496 571 37,000 -50 Descending Cleveland Center
Sat 10:51:46 AM 39.7083 -79.8328 49° Northeast 491 565 37,000  Level Cleveland Center
Sat 10:52:46 AM 39.7989 -79.6994 48° Northeast 491 565 37,000  Level Cleveland Center
Sat 10:53:46 AM 39.8897 -79.5658 48° Northeast 491 565 37,000  Level Cleveland Center
Sat 10:54:46 AM 39.9781 -79.4317 49° Northeast 491 565 37,000  Level Cleveland Center
Sat 10:55:46 AM 40.0642 -79.3000 49° Northeast 491 565 37,000  Level Cleveland Center
Sat 10:56:46 AM 40.1522 -79.1678 49° Northeast 485 558 37,000  Level Cleveland Center
Sat 10:57:46 AM 40.2361 -79.0439 48° Northeast 491 565 37,000  Level Cleveland Center
Sat 10:58:46 AM 40.3217 -78.9111 50° Northeast 486 559 37,000  Level Cleveland Center
Sat 10:59:46 AM 40.4133 -78.7725 49° Northeast 492 566 37,000  Level Cleveland Center
Sat 11:00:46 AM 40.5028 -78.6333 50° Northeast 492 566 37,000  Level Cleveland Center
Sat 11:01:46 AM 40.5922 -78.4967 49° Northeast 492 566 37,000  Level Cleveland Center
Sat 11:03:55 AM 40.7894 -78.1886 50° Northeast 501 577 37,000  Level New York Center
Sat 11:04:55 AM 40.8725 -78.0603 49° Northeast 501 577 37,000  Level New York Center
Sat 11:05:53 AM 40.9619 -77.9242 49° Northeast 501 577 37,000  Level New York Center
Sat 11:06:52 AM 41.0556 -77.7908 47° Northeast 501 577 37,000 -496 Level New York Center
Sat 11:07:54 AM 41.1492 -77.6517 48° Northeast 501 577 36,000 -1,073 Descending New York Center
Sat 11:08:55 AM 41.2444 -77.5125 48° Northeast 506 582 34,800 -1,412 Descending New York Center
Sat 11:09:53 AM 41.3489 -77.3625 47° Northeast 506 582 33,200 -1,576 Descending New York Center
Sat 11:10:53 AM 41.4442 -77.2194 48° Northeast 511 588 31,700 -1,438 Descending New York Center
Sat 11:11:54 AM 41.5325 -77.0867 48° Northeast 511 588 30,300 -1,300 Descending New York Center
Sat 11:12:53 AM 41.6275 -76.9431 48° Northeast 511 588 29,100 -678 Descending New York Center
Sat 11:14:51 AM 41.8039 -76.6822 48° Northeast 502 578 28,300 -640 Descending Boston Center
Sat 11:15:51 AM 41.9031 -76.5356 48° Northeast 491 565 27,200 -1,150 Descending Boston Center
Sat 11:16:51 AM 41.9892 -76.4014 49° Northeast 486 559 26,000 -1,000 Descending Boston Center
Sat 11:17:51 AM 42.0575 -76.2964 49° Northeast 480 552 25,200 -1,000 Descending Boston Center
Sat 11:18:51 AM 42.1544 -76.1456 49° Northeast 455 524 24,000 -545 Descending Boston Center
Sat 11:20:03 AM 42.2089 -76.0003 63° Northeast 443 510 24,000  Level Boston Center
Sat 11:21:03 AM 42.2708 -75.8214 65° Northeast 430 495 24,000  Level Boston Center
Sat 11:22:03 AM 42.3236 -75.6583 66° East 431 496 24,000 -50 Level Boston Center
Sat 11:23:03 AM 42.3731 -75.5233 64° Northeast 419 482 23,900 -850 Descending Boston Center
Sat 11:24:03 AM 42.4275 -75.3600 66° East 431 496 22,300 -1,700 Descending Boston Center
Sat 11:25:03 AM 42.4775 -75.1878 68° East 461 531 20,500 -1,900 Descending Boston Center
Sat 11:26:03 AM 42.5153 -75.0092 74° East 476 548 18,500 -2,350 Descending Boston Center
Sat 11:27:03 AM 42.5481 -74.8414 75° East 475 547 15,800 -2,887 Descending Boston Center
Sat 11:27:49 AM 42.5736 -74.7097 75° East 445 512 13,400 -2,636 Descending Boston Center
Sat 11:28:50 AM 42.6058 -74.5586 74° East 415 478 11,100 -1,289 Descending Boston Center
Sat 11:29:50 AM 42.6331 -74.4242 75° East 341 392 10,800 -893 Descending Boston Center
Sat 11:30:51 AM 42.6725 -74.3153 64° Northeast 319 367 9,300 -1,426 Descending Boston Center
Sat 11:31:52 AM 42.7139 -74.2061 63° Northeast 320 368 7,900 -1,388 Descending Boston Center
Sat 11:32:52 AM 42.7489 -74.0969 66° East 310 357 6,500 -1,282 Descending Boston Center
Sat 11:34:03 AM 42.7964 -73.9794 61° Northeast 299 344 5,100 -1,041 Descending Boston Center
Sat 11:34:53 AM 42.8469 -73.9408 29° Northeast 259 298 4,400 -1,135 Descending Boston Center
Sat 11:35:54 AM 42.9058 -73.8914 32° Northeast 245 282 3,000 -836 Descending Boston Center
Sat 11:36:55 AM 42.8964 -73.8147 100° East 194 223 2,700 -372 Descending Boston Center
Sat 11:38:03 AM 42.8614 -73.7856 149° Southeast 132 152 2,200 -694 Descending Boston Center
Sat 11:38:56 AM 42.8069 -73.8097 198° South 148 170 1,300 -895 Descending Boston Center
Sat 11:39:57 AM 42.7694 -73.8089 179° South 127 146 500 -787 Descending Boston Center

Login

Don't have an account? Register now (free) for customized features, flight alerts, and more!